Time;durP1;ratioP1;P1;durP2;ratioP2;P2;SDS_P1;SDS_P2;PMS_P1;PMS_P2;Temp;Humidity;BMP_temperature;BMP_pressure;BME280_temperature;BME280_humidity;BME280_pressure;Samples;Min_cycle;Max_cycle;Signal;HPM_P1;HPM_P2
2021/12/15 00:00:35;;;;;;;135.50;47.03;;;1.70;99.90;;;;;;4402219;32;20194;-68
2021/12/15 00:03:04;;;;;;;135.90;45.50;;;1.60;99.90;;;;;;4393878;32;20174;-67
2021/12/15 00:05:32;;;;;;;144.20;45.47;;;1.70;99.90;;;;;;4395695;32;20214;-68
2021/12/15 00:08:03;;;;;;;138.10;44.93;;;1.70;99.90;;;;;;4394441;32;20230;-67
2021/12/15 00:10:31;;;;;;;131.57;45.30;;;1.70;99.90;;;;;;4395337;32;20187;-67
2021/12/15 00:12:59;;;;;;;130.97;45.90;;;1.70;99.90;;;;;;4395375;32;20202;-67
2021/12/15 00:15:34;;;;;;;132.60;46.43;;;1.70;99.90;;;;;;4394951;32;20171;-67
2021/12/15 00:18:06;;;;;;;145.67;46.53;;;1.80;99.90;;;;;;4394799;32;20201;-67
2021/12/15 00:20:34;;;;;;;141.77;46.70;;;1.80;99.90;;;;;;4392934;32;20214;-67
2021/12/15 00:23:09;;;;;;;131.13;44.10;;;1.90;99.90;;;;;;4394450;32;20391;-68
2021/12/15 00:25:43;;;;;;;129.30;43.70;;;2.00;99.90;;;;;;4393361;32;20179;-67
2021/12/15 00:28:14;;;;;;;133.50;44.10;;;2.00;99.90;;;;;;4390288;32;20252;-67
2021/12/15 00:30:42;;;;;;;140.43;45.77;;;2.10;99.90;;;;;;4398978;32;20193;-67
2021/12/15 00:33:22;;;;;;;135.73;44.17;;;2.10;99.90;;;;;;4394926;32;20182;-68
2021/12/15 00:35:50;;;;;;;129.53;43.57;;;2.20;99.90;;;;;;4394622;32;20175;-67
2021/12/15 00:38:18;;;;;;;132.33;44.07;;;2.10;99.90;;;;;;4393957;32;20241;-67
2021/12/15 00:41:00;;;;;;;137.10;45.87;;;2.20;99.90;;;;;;4393980;32;20178;-68
2021/12/15 00:43:45;;;;;;;130.70;43.00;;;2.20;99.90;;;;;;4393346;32;20217;-68
2021/12/15 00:46:15;;;;;;;136.70;44.80;;;2.30;99.90;;;;;;4395219;32;20254;-67
2021/12/15 00:48:59;;;;;;;129.37;43.83;;;2.30;99.90;;;;;;4393724;32;20198;-67
2021/12/15 00:52:41;;;;;;;125.70;42.47;;;2.30;99.90;;;;;;4400843;32;20183;-66
2021/12/15 00:56:08;;;;;;;135.00;42.47;;;2.30;99.90;;;;;;4395438;32;20183;-67
2021/12/15 00:59:39;;;;;;;131.00;41.40;;;2.40;99.90;;;;;;4394347;32;20202;-67
2021/12/15 01:03:07;;;;;;;;;;;;;;;;;;;;;
2021/12/15 01:10:04;;;;;;;138.87;39.83;;;2.50;99.90;;;;;;4321800;33;20628;-68
2021/12/15 01:28:50;;;;;;;133.43;36.77;;;2.80;99.90;;;;;;4196317;34;20593;-68
2021/12/15 01:31:28;;;;;;;147.67;39.83;;;2.80;99.90;;;;;;4193981;34;20551;-68
2021/12/15 01:34:28;;;;;;;207.67;41.67;;;2.90;99.90;;;;;;4194991;34;20188;-68
2021/12/15 01:37:24;;;;;;;132.47;38.00;;;2.80;99.90;;;;;;4204074;34;20474;-68
2021/12/15 01:40:47;;;;;;;147.20;39.30;;;2.90;99.90;;;;;;4233626;33;20276;-68
2021/12/15 01:47:01;;;;;;;140.50;37.70;;;2.90;99.90;;;;;;4234129;34;20429;-68
2021/12/15 01:50:03;;;;;;;153.90;40.13;;;2.90;99.90;;;;;;4195390;34;20179;-68
2021/12/15 01:53:11;;;;;;;137.27;38.50;;;2.90;99.90;;;;;;4224333;34;20764;-68
2021/12/15 01:56:42;;;;;;;142.90;38.20;;;3.00;99.90;;;;;;4252972;33;20185;-68
2021/12/15 01:59:57;;;;;;;124.53;36.53;;;2.90;99.90;;;;;;4289691;33;20182;-68
2021/12/15 02:04:00;;;;;;;132.00;35.47;;;2.90;99.90;;;;;;4266227;33;20249;-68
2021/12/15 02:07:02;;;;;;;113.07;33.93;;;2.90;99.90;;;;;;4333692;33;20228;-68
2021/12/15 02:13:32;;;;;;;111.80;33.97;;;2.90;99.90;;;;;;4289620;33;20186;-68
2021/12/15 02:16:09;;;;;;;130.60;35.33;;;2.90;99.90;;;;;;4288385;33;20610;-69
2021/12/15 02:18:51;;;;;;;112.23;34.97;;;2.90;99.90;;;;;;4278090;33;20232;-68
2021/12/15 02:21:59;;;;;;;;;;;;;;;;;;;;;
2021/12/15 02:25:20;;;;;;;118.93;34.77;;;2.90;99.90;;;;;;4276979;33;20261;-68
2021/12/15 02:28:11;;;;;;;118.70;34.77;;;2.90;99.90;;;;;;4278080;33;20197;-68
2021/12/15 02:31:14;;;;;;;115.63;33.37;;;2.80;99.90;;;;;;4277787;33;20199;-68
2021/12/15 02:37:18;;;;;;;109.83;33.57;;;2.90;99.90;;;;;;4289532;33;20201;-68
2021/12/15 02:40:38;;;;;;;125.80;32.87;;;2.90;99.90;;;;;;4279064;33;20189;-68
2021/12/15 02:43:31;;;;;;;103.93;32.97;;;2.90;99.90;;;;;;4301842;33;20230;-68
2021/12/15 02:46:19;;;;;;;135.77;33.97;;;2.80;99.90;;;;;;4314529;33;20180;-67
2021/12/15 02:49:13;;;;;;;119.67;33.47;;;2.90;99.90;;;;;;4333343;33;20171;-68
2021/12/15 02:52:01;;;;;;;106.63;33.00;;;2.90;99.90;;;;;;4393876;32;20598;-68
2021/12/15 02:54:49;;;;;;;110.27;34.60;;;2.90;99.90;;;;;;4392442;32;20194;-68
2021/12/15 02:57:29;;;;;;;110.00;32.63;;;2.90;99.90;;;;;;4393047;32;20516;-68
2021/12/15 03:00:17;;;;;;;109.43;32.30;;;2.90;99.90;;;;;;4392978;32;20198;-68
2021/12/15 03:06:22;;;;;;;116.90;33.30;;;2.90;99.90;;;;;;4393149;32;20217;-68
2021/12/15 03:09:41;;;;;;;109.90;32.03;;;2.90;99.90;;;;;;4394805;32;20536;-68
2021/12/15 03:15:51;;;;;;;138.13;33.40;;;2.90;99.90;;;;;;4319543;33;20228;-68
2021/12/15 03:18:25;;;;;;;121.10;34.50;;;2.90;99.90;;;;;;4320398;33;20559;-68
2021/12/15 03:21:34;;;;;;;173.97;35.97;;;2.80;99.90;;;;;;4275171;33;20196;-68
2021/12/15 03:24:29;;;;;;;130.63;33.77;;;2.80;99.90;;;;;;4232535;34;20183;-68
2021/12/15 03:27:05;;;;;;;104.50;32.07;;;2.80;99.90;;;;;;4265939;33;20200;-68
2021/12/15 03:39:26;;;;;;;100.60;30.33;;;2.90;99.90;;;;;;4244207;33;20179;-68
2021/12/15 03:46:41;;;;;;;;;;;;;;;;;;;;;
2021/12/15 03:49:26;;;;;;;103.63;31.70;;;3.00;99.90;;;;;;4197274;34;20192;-68
2021/12/15 03:52:49;;;;;;;111.70;32.27;;;3.00;99.90;;;;;;4215759;33;20178;-68
2021/12/15 03:55:24;;;;;;;133.03;32.60;;;3.00;99.90;;;;;;4246037;33;20270;-68
2021/12/15 03:58:11;;;;;;;98.57;31.23;;;2.90;99.90;;;;;;4246664;33;20710;-68
2021/12/15 04:01:23;;;;;;;101.97;31.40;;;2.90;99.90;;;;;;4234078;33;20175;-68
2021/12/15 04:04:28;;;;;;;101.77;30.03;;;2.90;99.90;;;;;;4236450;33;20382;-68
2021/12/15 04:07:15;;;;;;;118.63;32.20;;;2.90;99.90;;;;;;4246111;33;20206;-68
2021/12/15 04:10:30;;;;;;;115.07;31.03;;;2.90;99.90;;;;;;4246254;33;20209;-68
2021/12/15 04:14:02;;;;;;;105.30;30.97;;;2.90;99.90;;;;;;4245154;33;20211;-68
2021/12/15 04:20:12;;;;;;;96.97;30.33;;;2.90;99.90;;;;;;4279509;33;20208;-68
2021/12/15 04:23:02;;;;;;;101.77;31.10;;;3.00;99.90;;;;;;4262342;33;20205;-68
2021/12/15 04:25:49;;;;;;;94.60;29.27;;;2.90;99.90;;;;;;4281374;33;20177;-68
2021/12/15 04:28:46;;;;;;;97.80;29.97;;;3.00;99.90;;;;;;4251033;33;20270;-68
2021/12/15 04:31:32;;;;;;;112.47;29.60;;;3.00;99.90;;;;;;4263032;33;20238;-68
2021/12/15 04:34:33;;;;;;;107.10;31.30;;;3.00;99.90;;;;;;4251143;33;20189;-68
2021/12/15 04:37:42;;;;;;;92.13;28.10;;;3.00;99.90;;;;;;4262076;33;20210;-68
2021/12/15 04:40:26;;;;;;;91.60;28.57;;;3.00;99.90;;;;;;4250598;33;20249;-68
2021/12/15 04:43:32;;;;;;;89.00;27.50;;;3.10;99.90;;;;;;4261912;33;20205;-68
2021/12/15 04:46:14;;;;;;;89.87;28.97;;;3.00;99.90;;;;;;4261275;33;20151;-68
2021/12/15 04:49:08;;;;;;;90.73;28.37;;;3.00;99.90;;;;;;4208907;34;20184;-69
2021/12/15 04:51:54;;;;;;;85.20;28.13;;;3.10;99.90;;;;;;4233578;33;20196;-68
2021/12/15 04:54:53;;;;;;;;;;;;;;;;;;;;;
2021/12/15 04:57:56;;;;;;;100.80;29.03;;;3.10;99.90;;;;;;4305175;33;20198;-67
2021/12/15 05:01:02;;;;;;;97.23;27.70;;;3.00;99.90;;;;;;4305649;33;20150;-68
2021/12/15 05:03:30;;;;;;;87.03;27.73;;;3.00;99.90;;;;;;4305099;33;20243;-68
2021/12/15 05:06:10;;;;;;;87.90;27.33;;;3.00;99.90;;;;;;4352723;32;20196;-68
2021/12/15 05:09:00;;;;;;;85.23;26.43;;;3.10;99.90;;;;;;4362533;32;20230;-68
2021/12/15 05:11:41;;;;;;;88.40;27.43;;;3.00;99.90;;;;;;4349730;33;20184;-67
2021/12/15 05:14:59;;;;;;;84.27;27.33;;;3.00;99.90;;;;;;4363883;32;20605;-68
2021/12/15 05:17:31;;;;;;;83.87;26.30;;;3.00;99.90;;;;;;4334278;33;20216;-68
2021/12/15 05:20:08;;;;;;;85.77;28.10;;;3.00;99.90;;;;;;4321166;33;20230;-68
2021/12/15 05:22:57;;;;;;;83.07;25.80;;;3.00;99.90;;;;;;4334042;33;20364;-68
2021/12/15 05:25:51;;;;;;;96.47;27.93;;;3.00;99.90;;;;;;4333192;32;20534;-68
2021/12/15 05:28:52;;;;;;;85.90;26.53;;;3.00;99.90;;;;;;4349968;32;20172;-68
2021/12/15 05:31:54;;;;;;;82.03;27.03;;;3.10;99.90;;;;;;4351238;32;20243;-68
2021/12/15 05:34:36;;;;;;;80.03;26.57;;;3.10;99.90;;;;;;4351202;32;20176;-68
2021/12/15 05:37:23;;;;;;;82.20;27.53;;;3.10;99.90;;;;;;4363484;32;20170;-68
2021/12/15 05:40:12;;;;;;;80.07;25.93;;;3.10;99.90;;;;;;4361773;32;20232;-68
2021/12/15 05:42:45;;;;;;;78.97;26.83;;;3.00;99.90;;;;;;4349450;33;20198;-68
2021/12/15 05:45:22;;;;;;;82.07;27.10;;;3.10;99.90;;;;;;4351143;32;20187;-68
2021/12/15 05:48:01;;;;;;;85.87;26.53;;;3.10;99.90;;;;;;4350640;33;20176;-68
2021/12/15 05:51:03;;;;;;;82.73;27.53;;;3.10;99.90;;;;;;4361604;33;20184;-68
2021/12/15 05:54:10;;;;;;;81.30;26.67;;;3.10;99.90;;;;;;4362431;32;20211;-68
2021/12/15 05:56:58;;;;;;;77.53;26.73;;;3.20;99.90;;;;;;4393038;32;20172;-68
2021/12/15 06:00:35;;;;;;;78.23;27.37;;;3.20;99.90;;;;;;4394575;32;20175;-69
2021/12/15 06:03:37;;;;;;;86.53;26.43;;;3.20;99.90;;;;;;4316541;33;20231;-68
2021/12/15 06:06:33;;;;;;;80.90;27.03;;;3.30;99.90;;;;;;4318775;33;20277;-68
2021/12/15 06:09:14;;;;;;;77.20;25.93;;;3.30;99.90;;;;;;4318017;33;20173;-69
2021/12/15 06:11:52;;;;;;;90.43;28.57;;;3.20;99.90;;;;;;4305559;33;20235;-68
2021/12/15 06:14:28;;;;;;;74.60;25.10;;;3.30;99.90;;;;;;4317761;33;20302;-68
2021/12/15 06:17:05;;;;;;;66.80;24.83;;;3.20;99.90;;;;;;4305873;33;20315;-68
2021/12/15 06:19:49;;;;;;;92.30;32.33;;;3.20;99.90;;;;;;4305093;33;20181;-68
2021/12/15 06:22:25;;;;;;;72.57;25.13;;;3.20;99.90;;;;;;4306274;33;20182;-68
2021/12/15 06:24:58;;;;;;;74.77;26.67;;;3.30;99.90;;;;;;4306555;33;20204;-68
2021/12/15 06:27:30;;;;;;;70.23;25.70;;;3.30;99.90;;;;;;4304947;33;20321;-68
2021/12/15 06:30:00;;;;;;;81.73;26.83;;;3.40;99.90;;;;;;4317410;33;20176;-68
2021/12/15 06:32:30;;;;;;;74.37;25.83;;;3.40;99.90;;;;;;4305910;33;20215;-68
2021/12/15 06:35:02;;;;;;;75.87;26.40;;;3.30;99.90;;;;;;4306088;33;20207;-68
2021/12/15 06:37:31;;;;;;;72.67;25.23;;;3.30;99.90;;;;;;4305911;33;20210;-68
2021/12/15 06:40:03;;;;;;;78.40;26.33;;;3.30;99.90;;;;;;4355745;32;20233;-68
2021/12/15 06:42:33;;;;;;;75.87;26.00;;;3.30;99.90;;;;;;4391779;32;20229;-69
2021/12/15 06:45:05;;;;;;;76.23;25.10;;;3.20;99.90;;;;;;4392682;32;20212;-69
2021/12/15 06:57:17;;;;;;;69.57;24.60;;;3.20;99.90;;;;;;4391612;32;20187;-68
2021/12/15 06:59:06;;;;;;;77.60;26.63;;;3.30;99.90;;;;;;4392181;32;20238;-68
2021/12/15 07:01:46;;;;;;;74.83;25.43;;;3.30;99.90;;;;;;4391879;32;20191;-68
2021/12/15 07:04:42;;;;;;;72.90;25.27;;;3.30;99.90;;;;;;4392357;32;20175;-68
2021/12/15 07:07:18;;;;;;;75.23;26.53;;;3.30;99.90;;;;;;4392370;32;20240;-69
2021/12/15 07:09:56;;;;;;;71.33;25.20;;;3.30;99.90;;;;;;4390862;32;20165;-69
2021/12/15 07:12:28;;;;;;;70.97;24.27;;;3.40;99.90;;;;;;4394193;32;20213;-68
2021/12/15 07:14:56;;;;;;;74.33;25.20;;;3.30;99.90;;;;;;4393819;32;20250;-69
2021/12/15 07:17:25;;;;;;;71.27;25.47;;;3.30;99.90;;;;;;4392315;32;20235;-69
2021/12/15 07:20:28;;;;;;;66.37;23.80;;;3.40;99.90;;;;;;4392276;32;20179;-69
2021/12/15 07:23:08;;;;;;;66.43;23.67;;;3.40;99.90;;;;;;4391416;32;20192;-68
2021/12/15 07:25:41;;;;;;;60.07;23.43;;;3.50;99.90;;;;;;4393322;32;20352;-68
2021/12/15 07:28:24;;;;;;;62.73;22.77;;;3.50;99.90;;;;;;4392777;32;20207;-69
2021/12/15 07:30:56;;;;;;;64.87;22.03;;;3.50;99.90;;;;;;4392337;32;20202;-69
2021/12/15 07:33:23;;;;;;;63.50;24.03;;;3.50;99.90;;;;;;4390628;32;20531;-68
2021/12/15 07:35:54;;;;;;;63.47;24.30;;;3.50;99.90;;;;;;4391010;32;20228;-68
2021/12/15 07:38:23;;;;;;;62.80;24.20;;;3.50;99.90;;;;;;4391478;32;20179;-69
2021/12/15 07:41:01;;;;;;;61.47;24.40;;;3.50;99.90;;;;;;4394112;32;20221;-68
2021/12/15 07:43:28;;;;;;;66.73;24.03;;;3.50;99.90;;;;;;4391339;32;20202;-69
2021/12/15 07:46:02;;;;;;;63.60;24.33;;;3.50;99.90;;;;;;4393012;32;20288;-68
2021/12/15 07:48:36;;;;;;;66.63;25.47;;;3.50;99.90;;;;;;4392976;32;20263;-68
2021/12/15 07:51:06;;;;;;;73.27;25.20;;;3.40;99.90;;;;;;4394781;32;20245;-68
2021/12/15 07:53:34;;;;;;;70.97;25.67;;;3.40;99.90;;;;;;4393965;32;20530;-68
2021/12/15 07:56:07;;;;;;;67.33;24.53;;;3.40;99.90;;;;;;4394695;32;20284;-69
2021/12/15 07:58:35;;;;;;;74.00;24.30;;;3.30;99.90;;;;;;4395075;32;20176;-70
2021/12/15 08:01:04;;;;;;;72.47;24.73;;;3.40;99.90;;;;;;4395366;32;20477;-68
2021/12/15 08:03:38;;;;;;;71.33;24.63;;;3.30;99.90;;;;;;4393404;32;20242;-68
2021/12/15 08:06:18;;;;;;;62.40;23.77;;;3.40;99.90;;;;;;4394737;32;20206;-69
2021/12/15 08:08:46;;;;;;;63.60;23.13;;;3.40;99.90;;;;;;4395685;32;20152;-68
2021/12/15 08:19:08;;;;;;;65.03;23.50;;;3.60;99.90;;;;;;4305775;33;20145;-68
2021/12/15 08:21:58;;;;;;;53.90;21.27;;;3.60;99.90;;;;;;4275189;33;20225;-68
2021/12/15 08:24:26;;;;;;;61.90;23.07;;;3.50;99.90;;;;;;4275749;33;20254;-68
2021/12/15 08:27:01;;;;;;;58.63;23.13;;;3.60;99.90;;;;;;4264340;33;20194;-68
2021/12/15 08:29:41;;;;;;;60.40;21.47;;;3.60;99.90;;;;;;4264046;33;20207;-68
2021/12/15 08:32:17;;;;;;;60.90;22.17;;;3.60;99.90;;;;;;4263459;33;20575;-68
2021/12/15 08:34:47;;;;;;;72.03;23.47;;;3.50;99.90;;;;;;4263537;33;20305;-68
2021/12/15 08:37:17;;;;;;;65.07;23.23;;;3.40;99.90;;;;;;4263544;33;20186;-68
2021/12/15 08:40:04;;;;;;;61.73;23.27;;;3.30;99.90;;;;;;4275079;33;20154;-68
2021/12/15 08:42:35;;;;;;;57.00;21.30;;;3.40;99.90;;;;;;4263210;33;20204;-68
2021/12/15 08:45:09;;;;;;;58.53;21.30;;;3.40;99.90;;;;;;4276681;33;20162;-68
2021/12/15 08:47:37;;;;;;;59.80;21.90;;;3.30;99.90;;;;;;4263999;33;20237;-68
2021/12/15 08:50:14;;;;;;;56.00;20.93;;;3.40;99.90;;;;;;4280377;33;20172;-68
2021/12/15 08:52:41;;;;;;;61.83;21.13;;;3.40;99.90;;;;;;4289707;33;20459;-69
2021/12/15 08:55:19;;;;;;;55.53;21.70;;;3.50;99.90;;;;;;4308717;33;20184;-68
2021/12/15 08:57:51;;;;;;;63.57;22.00;;;3.40;99.90;;;;;;4331817;32;20233;-68
2021/12/15 09:00:21;;;;;;;57.77;22.37;;;3.50;99.90;;;;;;4393542;32;20422;-68
2021/12/15 09:02:54;;;;;;;64.93;23.83;;;3.50;99.90;;;;;;4392629;32;20604;-68
2021/12/15 09:05:28;;;;;;;68.30;23.43;;;3.50;99.90;;;;;;4394020;32;20175;-69
2021/12/15 09:08:00;;;;;;;63.13;24.00;;;3.60;99.90;;;;;;4393125;32;20451;-69
2021/12/15 09:10:40;;;;;;;68.67;23.30;;;3.50;99.90;;;;;;4392911;32;20280;-69
2021/12/15 09:13:08;;;;;;;59.77;21.33;;;3.50;99.90;;;;;;4394649;32;20214;-68
2021/12/15 09:15:40;;;;;;;54.63;20.37;;;3.40;99.90;;;;;;4394174;32;20214;-69
2021/12/15 09:18:11;;;;;;;58.03;21.33;;;3.40;99.90;;;;;;4392770;32;20210;-69
2021/12/15 09:20:44;;;;;;;65.33;20.20;;;3.30;99.90;;;;;;4393242;32;20183;-68
2021/12/15 09:23:18;;;;;;;65.43;21.63;;;3.20;99.90;;;;;;4392712;32;20217;-68
2021/12/15 09:25:50;;;;;;;75.70;21.80;;;3.30;99.90;;;;;;4394237;32;20228;-68
2021/12/15 09:28:19;;;;;;;61.87;21.53;;;3.30;99.90;;;;;;4394783;32;20151;-68
2021/12/15 09:30:50;;;;;;;74.97;22.43;;;3.30;99.90;;;;;;4393027;32;20519;-68
2021/12/15 09:33:21;;;;;;;74.17;22.07;;;3.40;99.90;;;;;;4393546;32;20172;-68
2021/12/15 09:35:49;;;;;;;77.97;21.97;;;3.40;99.90;;;;;;4393143;32;20566;-68
2021/12/15 09:38:19;;;;;;;74.50;23.83;;;3.40;99.90;;;;;;4395083;32;20198;-68
2021/12/15 09:40:49;;;;;;;81.77;22.73;;;3.40;99.90;;;;;;4394535;32;20215;-68
2021/12/15 09:43:18;;;;;;;73.00;22.07;;;3.40;99.90;;;;;;4394452;32;20226;-68
2021/12/15 09:45:54;;;;;;;116.17;24.70;;;3.50;99.90;;;;;;4393695;32;20197;-68
2021/12/15 10:05:49;;;;;;;69.73;23.37;;;3.60;99.90;;;;;;4320273;33;20446;-68
2021/12/15 10:19:21;;;;;;;77.03;23.87;;;3.60;99.90;;;;;;4320100;33;20181;-67
2021/12/15 10:22:04;;;;;;;75.47;23.97;;;3.60;99.90;;;;;;4319634;33;20207;-67
2021/12/15 10:24:45;;;;;;;68.37;23.43;;;3.80;99.90;;;;;;4319907;33;20239;-67
2021/12/15 10:27:32;;;;;;;82.63;25.47;;;3.80;99.90;;;;;;4319334;33;20200;-68
2021/12/15 10:30:09;;;;;;;73.43;22.73;;;3.90;99.90;;;;;;4309091;33;20190;-67
2021/12/15 10:32:40;;;;;;;77.70;24.53;;;4.00;99.90;;;;;;4319341;33;20254;-67
2021/12/15 10:35:23;;;;;;;76.87;24.70;;;4.00;99.90;;;;;;4320611;33;20215;-67
2021/12/15 10:38:18;;;;;;;67.77;22.33;;;4.00;99.90;;;;;;4332921;33;20211;-67
2021/12/15 10:41:08;;;;;;;64.27;22.20;;;4.10;99.90;;;;;;4394760;32;20193;-67
2021/12/15 10:43:44;;;;;;;67.77;22.37;;;4.10;99.90;;;;;;4332691;33;20513;-67
2021/12/15 10:46:18;;;;;;;65.70;20.93;;;4.10;99.90;;;;;;4319593;33;20202;-67
2021/12/15 10:48:53;;;;;;;60.53;20.87;;;4.10;99.90;;;;;;4319511;33;20204;-67
2021/12/15 10:51:38;;;;;;;66.43;21.57;;;4.20;99.90;;;;;;4319554;33;20192;-67
2021/12/15 10:54:18;;;;;;;59.17;21.53;;;4.20;99.90;;;;;;4319149;33;20611;-66
2021/12/15 10:57:05;;;;;;;58.50;20.90;;;4.20;99.90;;;;;;4319094;33;20260;-67
2021/12/15 10:59:38;;;;;;;59.63;20.77;;;4.20;99.90;;;;;;4318931;33;20269;-67
2021/12/15 11:02:29;;;;;;;55.83;19.00;;;4.20;99.90;;;;;;4331377;33;20219;-67
2021/12/15 11:05:05;;;;;;;61.50;21.20;;;4.30;99.90;;;;;;4331694;33;20157;-67
2021/12/15 11:07:35;;;;;;;54.87;19.60;;;4.30;99.90;;;;;;4319275;33;20177;-67
2021/12/15 11:10:25;;;;;;;60.30;21.13;;;4.30;99.90;;;;;;4331767;33;20255;-67
2021/12/15 11:12:57;;;;;;;56.83;20.10;;;4.30;99.90;;;;;;4319950;33;20287;-67
2021/12/15 11:15:36;;;;;;;58.20;20.43;;;4.30;99.90;;;;;;4319056;33;20232;-67
2021/12/15 11:18:11;;;;;;;60.97;20.93;;;4.20;99.90;;;;;;4320354;33;20184;-67
2021/12/15 11:20:45;;;;;;;55.37;21.10;;;4.30;99.90;;;;;;4353679;32;20445;-67
2021/12/15 11:23:14;;;;;;;60.20;21.03;;;4.30;99.90;;;;;;4381223;32;20175;-67
2021/12/15 11:25:57;;;;;;;60.00;20.83;;;4.30;99.90;;;;;;4394048;32;20171;-67
2021/12/15 11:28:27;;;;;;;57.63;20.07;;;4.40;99.90;;;;;;4394637;32;20179;-68
2021/12/15 11:30:59;;;;;;;57.23;20.67;;;4.40;99.90;;;;;;4396149;32;20167;-67
2021/12/15 11:33:28;;;;;;;58.70;19.97;;;4.40;99.90;;;;;;4395654;32;20179;-67
2021/12/15 11:36:06;;;;;;;60.30;20.67;;;4.50;99.90;;;;;;4396562;32;20147;-67
2021/12/15 11:38:37;;;;;;;53.10;19.93;;;4.50;99.90;;;;;;4394918;32;20189;-67
2021/12/15 11:41:36;;;;;;;55.60;20.47;;;4.60;99.90;;;;;;4396235;32;20234;-67
2021/12/15 11:44:17;;;;;;;54.13;18.73;;;4.60;99.90;;;;;;4394255;32;20229;-67
2021/12/15 11:46:48;;;;;;;57.33;20.63;;;4.60;99.90;;;;;;4395033;32;20194;-67
2021/12/15 11:49:30;;;;;;;58.10;20.57;;;4.60;99.90;;;;;;4393649;32;20238;-68
2021/12/15 11:52:10;;;;;;;56.83;19.37;;;4.50;99.90;;;;;;4394961;32;20229;-67
2021/12/15 11:54:40;;;;;;;52.97;19.63;;;4.50;99.90;;;;;;4394935;32;20337;-67
2021/12/15 11:57:15;;;;;;;53.03;19.73;;;4.50;99.90;;;;;;4394016;32;20210;-67
2021/12/15 11:59:51;;;;;;;61.53;20.93;;;4.60;99.90;;;;;;4394091;32;20186;-68
2021/12/15 12:02:26;;;;;;;53.67;20.13;;;4.80;99.90;;;;;;4394353;32;20207;-67
2021/12/15 12:04:59;;;;;;;61.60;20.70;;;4.70;99.90;;;;;;4393986;32;20183;-67
2021/12/15 12:07:29;;;;;;;57.40;19.67;;;4.70;99.90;;;;;;4393599;32;20252;-67
2021/12/15 12:10:05;;;;;;;59.63;21.50;;;4.80;99.90;;;;;;4393979;32;20175;-67
2021/12/15 12:12:40;;;;;;;62.27;20.83;;;4.80;99.90;;;;;;4393273;32;20591;-67
2021/12/15 12:15:12;;;;;;;58.23;21.13;;;4.80;99.90;;;;;;4395197;32;20208;-67
2021/12/15 12:17:42;;;;;;;59.80;20.80;;;4.80;99.90;;;;;;4393246;32;20187;-67
2021/12/15 12:20:16;;;;;;;56.83;20.80;;;4.90;99.90;;;;;;4394828;32;20189;-67
2021/12/15 12:22:46;;;;;;;57.27;20.33;;;4.90;99.90;;;;;;4393851;32;20174;-67
2021/12/15 12:25:17;;;;;;;61.03;20.27;;;4.90;99.90;;;;;;4393177;32;20221;-67
2021/12/15 12:27:46;;;;;;;58.10;20.87;;;5.00;99.90;;;;;;4395441;32;20167;-67
2021/12/15 12:30:17;;;;;;;54.60;20.37;;;5.00;99.90;;;;;;4394665;32;20238;-67
2021/12/15 12:32:44;;;;;;;62.33;20.77;;;5.00;99.90;;;;;;4394017;32;20248;-67
2021/12/15 12:35:15;;;;;;;59.63;20.20;;;4.90;99.90;;;;;;4395179;32;20175;-67
2021/12/15 12:37:43;;;;;;;55.43;20.17;;;4.90;99.90;;;;;;4395979;32;20149;-67
2021/12/15 12:40:25;;;;;;;64.07;21.43;;;4.90;99.90;;;;;;4393697;32;20185;-67
2021/12/15 12:42:52;;;;;;;60.83;20.47;;;5.00;99.90;;;;;;4394208;32;20392;-66
2021/12/15 12:45:24;;;;;;;59.57;20.60;;;5.10;99.90;;;;;;4394907;32;20179;-67
2021/12/15 12:48:12;;;;;;;61.50;20.93;;;5.10;99.90;;;;;;4395503;32;20165;-66
2021/12/15 12:59:46;;;;;;;56.07;20.70;;;5.20;99.90;;;;;;4394322;32;20175;-67
2021/12/15 13:02:39;;;;;;;56.77;20.23;;;5.30;99.90;;;;;;4320620;33;20181;-67
2021/12/15 13:05:31;;;;;;;53.53;20.47;;;5.30;99.90;;;;;;4333363;33;20236;-67
2021/12/15 13:08:02;;;;;;;59.00;20.83;;;5.30;99.90;;;;;;4320575;33;20514;-67
2021/12/15 13:11:04;;;;;;;57.80;20.97;;;5.30;99.90;;;;;;4320390;33;20244;-67
2021/12/15 13:13:58;;;;;;;55.70;20.80;;;5.30;99.90;;;;;;4288716;33;20192;-67
2021/12/15 13:16:50;;;;;;;55.63;21.43;;;5.20;99.90;;;;;;4288470;33;20246;-67
2021/12/15 13:19:18;;;;;;;60.47;22.10;;;5.20;99.90;;;;;;4288493;33;20346;-66
2021/12/15 13:22:19;;;;;;;56.53;20.70;;;5.30;99.90;;;;;;4288398;33;20174;-67
2021/12/15 13:31:20;;;;;;;55.10;21.10;;;5.40;99.90;;;;;;4289663;33;20177;-67
2021/12/15 13:33:48;;;;;;;59.60;21.27;;;5.40;99.90;;;;;;4288066;33;20268;-67
2021/12/15 13:36:24;;;;;;;57.17;22.83;;;5.30;99.90;;;;;;4289766;33;20227;-67
2021/12/15 13:39:12;;;;;;;54.33;22.23;;;5.30;99.90;;;;;;4300808;33;20185;-67
2021/12/15 13:42:03;;;;;;;55.43;21.70;;;5.30;99.90;;;;;;4332073;33;20146;-67
2021/12/15 13:44:43;;;;;;;58.70;21.13;;;5.30;99.90;;;;;;4320080;33;20243;-67
2021/12/15 13:47:20;;;;;;;55.73;21.83;;;5.30;99.90;;;;;;4319706;33;20189;-67
2021/12/15 13:49:50;;;;;;;58.13;21.47;;;5.30;99.90;;;;;;4350171;32;20206;-67
2021/12/15 13:52:20;;;;;;;56.57;22.50;;;5.30;99.90;;;;;;4392595;32;20175;-66
2021/12/15 13:54:51;;;;;;;51.27;20.73;;;5.30;99.90;;;;;;4393415;32;20535;-67
2021/12/15 13:57:25;;;;;;;50.90;21.17;;;5.30;99.90;;;;;;4393203;32;20229;-67
2021/12/15 14:00:07;;;;;;;55.67;22.80;;;5.30;99.90;;;;;;4392239;32;20206;-66
2021/12/15 14:02:39;;;;;;;56.83;23.17;;;5.30;99.90;;;;;;4393541;32;20277;-66
2021/12/15 14:05:22;;;;;;;59.43;23.20;;;5.20;99.90;;;;;;4392862;32;20234;-67
2021/12/15 14:08:03;;;;;;;55.60;22.60;;;5.20;99.90;;;;;;4394472;32;20241;-66
2021/12/15 14:10:30;;;;;;;55.33;22.83;;;5.20;99.90;;;;;;4393137;32;20275;-67
2021/12/15 14:13:02;;;;;;;57.60;23.23;;;5.30;99.90;;;;;;4392885;32;20250;-67
2021/12/15 14:15:38;;;;;;;59.23;24.23;;;5.30;99.90;;;;;;4380546;32;20403;-66
2021/12/15 14:18:40;;;;;;;60.27;24.67;;;5.30;99.90;;;;;;4392853;32;20183;-66
2021/12/15 14:21:18;;;;;;;62.10;23.47;;;5.20;99.90;;;;;;4319499;33;20364;-66
2021/12/15 14:23:49;;;;;;;58.10;24.47;;;5.20;99.90;;;;;;4320992;33;20231;-66
2021/12/15 14:26:34;;;;;;;65.13;25.37;;;5.20;99.90;;;;;;4321265;33;20243;-67
2021/12/15 14:29:09;;;;;;;64.57;24.87;;;5.20;99.90;;;;;;4319126;33;20578;-67
2021/12/15 14:31:40;;;;;;;61.67;22.97;;;5.20;99.90;;;;;;4320050;33;20222;-67
2021/12/15 14:34:30;;;;;;;53.83;21.70;;;5.20;99.90;;;;;;4320339;33;20198;-67
2021/12/15 14:37:06;;;;;;;56.70;23.37;;;5.20;99.90;;;;;;4319041;33;20451;-67
2021/12/15 14:39:39;;;;;;;65.10;24.20;;;5.20;99.90;;;;;;4319625;33;20170;-67
2021/12/15 14:42:16;;;;;;;59.00;24.07;;;5.20;99.90;;;;;;4320024;33;20193;-67
2021/12/15 14:44:47;;;;;;;63.97;24.90;;;5.30;99.90;;;;;;4320078;33;20253;-67
2021/12/15 14:47:25;;;;;;;61.90;24.67;;;5.20;99.90;;;;;;4332387;33;20222;-66
2021/12/15 14:49:54;;;;;;;58.40;23.97;;;5.20;99.90;;;;;;4320122;33;20268;-67
2021/12/15 14:52:24;;;;;;;62.60;24.07;;;5.20;99.90;;;;;;4319915;33;20206;-67
2021/12/15 14:54:54;;;;;;;59.30;23.77;;;5.20;99.90;;;;;;4321348;33;20374;-67
2021/12/15 14:57:24;;;;;;;64.00;24.00;;;5.20;99.90;;;;;;4346726;32;20199;-67
2021/12/15 15:00:18;;;;;;;61.73;25.00;;;5.20;99.90;;;;;;4391783;32;20252;-67
2021/12/15 15:02:49;;;;;;;59.77;23.67;;;5.10;99.90;;;;;;4392218;32;20203;-68
2021/12/15 15:05:22;;;;;;;52.67;22.30;;;5.10;99.90;;;;;;4392244;32;20188;-68
2021/12/15 15:07:54;;;;;;;58.57;23.83;;;5.10;99.90;;;;;;4393058;32;20181;-68
2021/12/15 15:10:25;;;;;;;61.87;24.50;;;5.10;99.90;;;;;;4380722;32;20449;-68
2021/12/15 15:12:54;;;;;;;66.33;25.93;;;5.10;99.90;;;;;;4392929;32;20221;-68
2021/12/15 15:15:31;;;;;;;58.77;24.30;;;5.10;99.90;;;;;;4392064;32;20212;-68
2021/12/15 15:18:12;;;;;;;62.80;25.07;;;5.10;99.90;;;;;;4392591;32;20189;-68
2021/12/15 15:20:42;;;;;;;62.70;25.27;;;5.10;99.90;;;;;;4394452;32;20207;-69
2021/12/15 15:23:13;;;;;;;60.13;25.40;;;5.10;99.90;;;;;;4393244;32;20173;-69
2021/12/15 15:25:45;;;;;;;59.50;25.13;;;5.10;99.90;;;;;;4392756;32;20203;-69
2021/12/15 15:28:15;;;;;;;64.70;27.17;;;5.10;99.90;;;;;;4391653;32;20266;-69
2021/12/15 15:30:44;;;;;;;67.20;26.60;;;5.00;99.90;;;;;;4392276;32;20397;-69
2021/12/15 15:33:16;;;;;;;60.00;26.53;;;4.90;99.90;;;;;;4391972;32;20253;-69
2021/12/15 15:35:51;;;;;;;64.00;26.97;;;4.90;99.90;;;;;;4391252;32;20197;-69
2021/12/15 15:38:21;;;;;;;65.67;26.97;;;4.80;99.90;;;;;;4391427;32;20218;-69
2021/12/15 15:40:53;;;;;;;69.07;27.87;;;4.90;99.90;;;;;;4391696;32;20212;-69
2021/12/15 15:43:34;;;;;;;64.37;26.90;;;4.80;99.90;;;;;;4391984;32;20185;-69
2021/12/15 15:46:04;;;;;;;66.43;26.43;;;4.80;99.90;;;;;;4391789;32;20179;-68